SHT9L EGPH-EGLL
Flight info
| Callsign | SHT9L |
|---|---|
| Flight time | 1h 0m |
| Altitude | 25000 |
| Route | DCT GOSAM DCT FENIK L612 ELBUS/N0442F310 DCT LAKEY DCT NUGRA NUGRA2H |
| Aircraft | A320/M-SDE3FGIJ1KRWXY/SB1 |
Departure
| Time | 2026-04-20 19:40 |
|---|---|
| Airport | Edinburgh Airport (EGPH) |
Arrival
| Time | 2026-04-20 20:40 |
|---|---|
| Airport | London Heathrow Airport (EGLL) |
| Time | Latitude | Longitude | Altitude | Speed | Heading |
|---|---|---|---|---|---|
| 2026-04-20 18:47 | 55.94906 | -3.36496 | 113 ft | 0 kts | 148° |
| 2026-04-20 19:29 | 55.94908 | -3.36498 | 116 ft | 2 kts | 148° |
| 2026-04-20 19:29 | 55.94929 | -3.36521 | 120 ft | 2 kts | 149° |
| 2026-04-20 19:29 | 55.94949 | -3.36538 | 112 ft | 4 kts | 182° |
| 2026-04-20 19:30 | 55.94971 | -3.36522 | 114 ft | 4 kts | 231° |
| 2026-04-20 19:30 | 55.94976 | -3.36508 | 112 ft | 0 kts | 238° |
| 2026-04-20 19:35 | 55.94975 | -3.36513 | 112 ft | 2 kts | 238° |
| 2026-04-20 19:35 | 55.94962 | -3.36549 | 112 ft | 5 kts | 238° |
| 2026-04-20 19:35 | 55.94941 | -3.36612 | 112 ft | 7 kts | 239° |
| 2026-04-20 19:35 | 55.94912 | -3.36698 | 116 ft | 9 kts | 239° |
| 2026-04-20 19:36 | 55.94895 | -3.36751 | 116 ft | 7 kts | 242° |
| 2026-04-20 19:36 | 55.94912 | -3.36819 | 114 ft | 7 kts | 317° |
| 2026-04-20 19:36 | 55.94920 | -3.36911 | 114 ft | 9 kts | 243° |
| 2026-04-20 19:36 | 55.94883 | -3.37020 | 114 ft | 11 kts | 239° |
| 2026-04-20 19:37 | 55.94839 | -3.37153 | 116 ft | 15 kts | 239° |
| 2026-04-20 19:37 | 55.94778 | -3.37331 | 115 ft | 18 kts | 238° |
| 2026-04-20 19:37 | 55.94709 | -3.37535 | 114 ft | 20 kts | 239° |
| 2026-04-20 19:37 | 55.94632 | -3.37763 | 115 ft | 23 kts | 238° |
| 2026-04-20 19:38 | 55.94546 | -3.38015 | 116 ft | 25 kts | 238° |
| 2026-04-20 19:38 | 55.94452 | -3.38291 | 114 ft | 27 kts | 239° |
| 2026-04-20 19:38 | 55.94366 | -3.38547 | 115 ft | 19 kts | 239° |
| 2026-04-20 19:38 | 55.94298 | -3.38752 | 113 ft | 19 kts | 239° |
| 2026-04-20 19:39 | 55.94300 | -3.38881 | 115 ft | 12 kts | 325° |
| 2026-04-20 19:39 | 55.94381 | -3.38967 | 114 ft | 16 kts | 334° |
| 2026-04-20 19:39 | 55.94459 | -3.38846 | 113 ft | 19 kts | 60° |
| 2026-04-20 19:39 | 55.94642 | -3.38304 | 113 ft | 84 kts | 59° |
| 2026-04-20 19:40 | 55.95044 | -3.37119 | 112 ft | 137 kts | 58° |
| 2026-04-20 19:40 | 55.95571 | -3.35533 | 494 ft | 148 kts | 61° |
| 2026-04-20 19:40 | 55.96149 | -3.33982 | 1095 ft | 153 kts | 46° |
| 2026-04-20 19:40 | 55.96986 | -3.32702 | 1519 ft | 168 kts | 44° |
| 2026-04-20 19:41 | 55.97908 | -3.31228 | 1799 ft | 188 kts | 45° |
| 2026-04-20 19:41 | 55.98939 | -3.29526 | 2051 ft | 215 kts | 45° |
| 2026-04-20 19:41 | 56.00254 | -3.27996 | 2482 ft | 241 kts | 20° |
| 2026-04-20 19:41 | 56.01957 | -3.27968 | 3343 ft | 249 kts | 343° |
| 2026-04-20 19:42 | 56.03330 | -3.29698 | 4555 ft | 244 kts | 309° |
| 2026-04-20 19:42 | 56.04014 | -3.32605 | 5042 ft | 269 kts | 276° |
| 2026-04-20 19:42 | 56.03778 | -3.35976 | 5725 ft | 279 kts | 255° |
| 2026-04-20 19:42 | 56.03151 | -3.39284 | 5976 ft | 281 kts | 249° |
| 2026-04-20 19:43 | 56.02667 | -3.41475 | 6074 ft | 281 kts | 248° |
| 2026-04-20 19:43 | 56.01739 | -3.45837 | 7144 ft | 285 kts | 250° |
| 2026-04-20 19:43 | 56.01111 | -3.49189 | 8033 ft | 286 kts | 251° |
| 2026-04-20 19:43 | 56.00537 | -3.52606 | 8884 ft | 288 kts | 253° |
| 2026-04-20 19:44 | 56.00003 | -3.56076 | 9710 ft | 291 kts | 254° |
| 2026-04-20 19:44 | 55.99489 | -3.59606 | 10497 ft | 295 kts | 254° |
| 2026-04-20 19:44 | 55.98971 | -3.63251 | 10849 ft | 314 kts | 254° |
| 2026-04-20 19:44 | 55.98416 | -3.67171 | 11020 ft | 337 kts | 254° |
| 2026-04-20 19:45 | 55.97829 | -3.71298 | 11447 ft | 348 kts | 254° |
| 2026-04-20 19:45 | 55.97227 | -3.75510 | 12089 ft | 352 kts | 254° |
| 2026-04-20 19:45 | 55.96616 | -3.79772 | 12740 ft | 357 kts | 254° |
| 2026-04-20 19:45 | 55.95995 | -3.84082 | 13396 ft | 361 kts | 254° |
| 2026-04-20 19:46 | 55.95364 | -3.88442 | 14042 ft | 365 kts | 253° |
| 2026-04-20 19:46 | 55.94724 | -3.92846 | 14629 ft | 369 kts | 253° |
| 2026-04-20 19:46 | 55.94044 | -3.97276 | 15213 ft | 371 kts | 248° |
| 2026-04-20 19:46 | 55.92900 | -4.01382 | 15799 ft | 370 kts | 233° |
| 2026-04-20 19:47 | 55.91210 | -4.04814 | 16375 ft | 368 kts | 218° |
| 2026-04-20 19:47 | 55.89141 | -4.07495 | 16952 ft | 369 kts | 211° |
| 2026-04-20 19:47 | 55.87015 | -4.10083 | 17546 ft | 372 kts | 211° |
| 2026-04-20 19:47 | 55.84873 | -4.12697 | 18139 ft | 375 kts | 211° |
| 2026-04-20 19:48 | 55.82714 | -4.15333 | 18735 ft | 378 kts | 211° |
| 2026-04-20 19:48 | 55.80541 | -4.17987 | 19278 ft | 380 kts | 212° |
| 2026-04-20 19:48 | 55.78353 | -4.20660 | 19841 ft | 383 kts | 211° |
| 2026-04-20 19:48 | 55.76028 | -4.22952 | 20398 ft | 382 kts | 200° |
| 2026-04-20 19:49 | 55.73503 | -4.24382 | 20953 ft | 381 kts | 189° |
| 2026-04-20 19:49 | 55.70872 | -4.24904 | 21511 ft | 381 kts | 179° |
| 2026-04-20 19:49 | 55.68238 | -4.24486 | 22012 ft | 382 kts | 167° |
| 2026-04-20 19:49 | 55.65685 | -4.23162 | 22500 ft | 384 kts | 157° |
| 2026-04-20 19:50 | 55.63281 | -4.21086 | 23002 ft | 385 kts | 150° |
| 2026-04-20 19:50 | 55.60942 | -4.18768 | 23497 ft | 388 kts | 150° |
| 2026-04-20 19:50 | 55.58565 | -4.16437 | 23956 ft | 391 kts | 150° |
| 2026-04-20 19:50 | 55.56207 | -4.14139 | 24310 ft | 394 kts | 150° |
| 2026-04-20 19:51 | 55.53763 | -4.11765 | 24652 ft | 398 kts | 151° |
| 2026-04-20 19:51 | 55.51359 | -4.09437 | 25008 ft | 401 kts | 151° |
| 2026-04-20 19:51 | 55.48895 | -4.07058 | 25664 ft | 395 kts | 151° |
| 2026-04-20 19:51 | 55.46468 | -4.04789 | 25802 ft | 404 kts | 152° |
| 2026-04-20 19:52 | 55.43914 | -4.02486 | 26032 ft | 411 kts | 154° |
| 2026-04-20 19:52 | 55.41345 | -4.00213 | 26277 ft | 416 kts | 154° |
| 2026-04-20 19:52 | 55.38749 | -3.97927 | 26607 ft | 419 kts | 154° |
| 2026-04-20 19:52 | 55.36134 | -3.95618 | 26904 ft | 422 kts | 154° |
| 2026-04-20 19:53 | 55.33500 | -3.93281 | 27228 ft | 425 kts | 154° |
| 2026-04-20 19:53 | 55.30852 | -3.90915 | 27563 ft | 428 kts | 153° |
| 2026-04-20 19:53 | 55.28195 | -3.88533 | 27876 ft | 431 kts | 154° |
| 2026-04-20 19:53 | 55.25516 | -3.86133 | 28203 ft | 434 kts | 154° |
| 2026-04-20 19:54 | 55.22826 | -3.83727 | 28553 ft | 435 kts | 153° |
| 2026-04-20 19:54 | 55.20117 | -3.81311 | 28859 ft | 438 kts | 153° |
| 2026-04-20 19:54 | 55.17385 | -3.78881 | 29089 ft | 443 kts | 154° |
| 2026-04-20 19:54 | 55.14626 | -3.76439 | 29358 ft | 446 kts | 154° |
| 2026-04-20 19:55 | 55.11852 | -3.73987 | 29734 ft | 447 kts | 154° |
| 2026-04-20 19:55 | 55.09082 | -3.71545 | 30208 ft | 446 kts | 154° |
| 2026-04-20 19:55 | 55.06313 | -3.69108 | 30617 ft | 445 kts | 154° |
| 2026-04-20 19:55 | 55.03546 | -3.66676 | 30972 ft | 446 kts | 154° |
| 2026-04-20 19:56 | 55.00777 | -3.64240 | 31268 ft | 447 kts | 154° |
| 2026-04-20 19:56 | 54.95217 | -3.59355 | 31352 ft | 447 kts | 154° |
| 2026-04-20 19:57 | 54.89611 | -3.54456 | 31462 ft | 457 kts | 154° |
| 2026-04-20 19:57 | 54.86829 | -3.52029 | 31585 ft | 462 kts | 154° |
| 2026-04-20 19:57 | 54.83946 | -3.49518 | 31817 ft | 464 kts | 154° |
| 2026-04-20 19:57 | 54.81018 | -3.46974 | 32112 ft | 465 kts | 154° |
| 2026-04-20 19:58 | 54.78165 | -3.44497 | 32461 ft | 465 kts | 154° |
| 2026-04-20 19:58 | 54.75225 | -3.41949 | 32723 ft | 467 kts | 154° |
| 2026-04-20 19:58 | 54.72366 | -3.39475 | 33075 ft | 466 kts | 154° |
| 2026-04-20 19:58 | 54.69469 | -3.36972 | 33426 ft | 465 kts | 154° |
| 2026-04-20 19:59 | 54.66615 | -3.34510 | 34343 ft | 450 kts | 154° |
| 2026-04-20 19:59 | 54.63840 | -3.32119 | 34907 ft | 444 kts | 154° |
| 2026-04-20 19:59 | 54.61070 | -3.29736 | 35158 ft | 446 kts | 154° |
| 2026-04-20 19:59 | 54.58282 | -3.27343 | 35315 ft | 450 kts | 154° |
| 2026-04-20 20:00 | 54.55463 | -3.24930 | 35359 ft | 456 kts | 154° |
| 2026-04-20 20:00 | 54.49711 | -3.20011 | 35363 ft | 467 kts | 154° |
| 2026-04-20 20:01 | 54.43869 | -3.15031 | 35360 ft | 467 kts | 154° |
| 2026-04-20 20:01 | 54.38054 | -3.10095 | 35355 ft | 466 kts | 154° |
| 2026-04-20 20:02 | 54.32247 | -3.05180 | 35359 ft | 465 kts | 154° |
| 2026-04-20 20:02 | 54.26442 | -3.00288 | 35360 ft | 465 kts | 154° |
| 2026-04-20 20:03 | 54.20453 | -2.96129 | 35339 ft | 465 kts | 162° |
| 2026-04-20 20:03 | 54.14322 | -2.92608 | 35341 ft | 466 kts | 162° |
| 2026-04-20 20:04 | 54.08223 | -2.89120 | 35340 ft | 467 kts | 162° |
| 2026-04-20 20:04 | 54.02096 | -2.85612 | 35339 ft | 467 kts | 162° |
| 2026-04-20 20:05 | 53.95935 | -2.82092 | 35291 ft | 468 kts | 163° |
| 2026-04-20 20:05 | 53.89740 | -2.78571 | 35314 ft | 470 kts | 163° |
| 2026-04-20 20:06 | 53.83533 | -2.75066 | 35315 ft | 470 kts | 163° |
| 2026-04-20 20:06 | 53.77327 | -2.71565 | 35310 ft | 470 kts | 163° |
| 2026-04-20 20:07 | 53.71117 | -2.68056 | 35307 ft | 470 kts | 163° |
| 2026-04-20 20:07 | 53.64915 | -2.64564 | 35294 ft | 471 kts | 163° |
| 2026-04-20 20:08 | 53.58767 | -2.61130 | 35300 ft | 471 kts | 163° |
| 2026-04-20 20:08 | 53.52547 | -2.57663 | 35315 ft | 471 kts | 163° |
| 2026-04-20 20:09 | 53.46313 | -2.54186 | 35314 ft | 472 kts | 163° |
| 2026-04-20 20:09 | 53.40073 | -2.50722 | 35334 ft | 472 kts | 163° |
| 2026-04-20 20:10 | 53.33827 | -2.47271 | 35341 ft | 472 kts | 163° |
| 2026-04-20 20:10 | 53.27588 | -2.43835 | 35340 ft | 472 kts | 163° |
| 2026-04-20 20:11 | 53.21339 | -2.40420 | 35324 ft | 473 kts | 164° |
| 2026-04-20 20:11 | 53.15085 | -2.36995 | 35322 ft | 473 kts | 164° |
| 2026-04-20 20:12 | 53.08831 | -2.33570 | 35322 ft | 473 kts | 164° |
| 2026-04-20 20:12 | 53.02653 | -2.29818 | 35261 ft | 475 kts | 155° |
| 2026-04-20 20:13 | 52.96991 | -2.24109 | 34768 ft | 478 kts | 149° |
| 2026-04-20 20:13 | 52.94176 | -2.21154 | 34548 ft | 479 kts | 150° |
| 2026-04-20 20:13 | 52.91361 | -2.18204 | 34310 ft | 480 kts | 150° |
| 2026-04-20 20:13 | 52.88530 | -2.15242 | 34039 ft | 481 kts | 150° |
| 2026-04-20 20:14 | 52.85690 | -2.12280 | 33203 ft | 485 kts | 150° |
| 2026-04-20 20:14 | 52.82824 | -2.09299 | 32344 ft | 488 kts | 150° |
| 2026-04-20 20:14 | 52.79957 | -2.06319 | 31723 ft | 485 kts | 150° |
| 2026-04-20 20:14 | 52.77115 | -2.03361 | 31175 ft | 481 kts | 150° |
| 2026-04-20 20:15 | 52.74293 | -2.00430 | 30594 ft | 478 kts | 151° |
| 2026-04-20 20:15 | 52.71487 | -1.97522 | 29983 ft | 475 kts | 151° |
| 2026-04-20 20:15 | 52.68697 | -1.94632 | 29419 ft | 471 kts | 151° |
| 2026-04-20 20:15 | 52.65941 | -1.91780 | 28856 ft | 466 kts | 151° |
| 2026-04-20 20:16 | 52.63203 | -1.88955 | 28300 ft | 462 kts | 151° |
| 2026-04-20 20:16 | 52.60526 | -1.86202 | 27775 ft | 458 kts | 151° |
| 2026-04-20 20:16 | 52.57802 | -1.83404 | 27223 ft | 454 kts | 151° |
| 2026-04-20 20:16 | 52.55135 | -1.80670 | 26688 ft | 450 kts | 151° |
| 2026-04-20 20:17 | 52.52496 | -1.77964 | 26158 ft | 446 kts | 150° |
| 2026-04-20 20:17 | 52.49874 | -1.75277 | 25635 ft | 442 kts | 152° |
| 2026-04-20 20:17 | 52.47273 | -1.72615 | 25142 ft | 440 kts | 152° |
| 2026-04-20 20:17 | 52.44679 | -1.69967 | 24655 ft | 438 kts | 152° |
| 2026-04-20 20:18 | 52.42098 | -1.67340 | 24166 ft | 437 kts | 152° |
| 2026-04-20 20:18 | 52.39514 | -1.64714 | 23663 ft | 435 kts | 151° |
| 2026-04-20 20:18 | 52.36990 | -1.62146 | 23190 ft | 431 kts | 151° |
| 2026-04-20 20:18 | 52.34457 | -1.59567 | 22722 ft | 427 kts | 151° |
| 2026-04-20 20:19 | 52.31946 | -1.57017 | 22262 ft | 424 kts | 150° |
| 2026-04-20 20:19 | 52.29448 | -1.54486 | 21800 ft | 421 kts | 150° |
| 2026-04-20 20:19 | 52.26965 | -1.51979 | 21322 ft | 418 kts | 151° |
| 2026-04-20 20:19 | 52.24499 | -1.49495 | 20861 ft | 415 kts | 151° |
| 2026-04-20 20:20 | 52.22063 | -1.47004 | 20399 ft | 413 kts | 147° |
| 2026-04-20 20:20 | 52.19827 | -1.44071 | 19960 ft | 410 kts | 140° |
| 2026-04-20 20:20 | 52.17684 | -1.41050 | 19552 ft | 406 kts | 140° |
| 2026-04-20 20:20 | 52.15555 | -1.38067 | 19141 ft | 401 kts | 140° |
| 2026-04-20 20:21 | 52.13446 | -1.35135 | 18734 ft | 396 kts | 140° |
| 2026-04-20 20:21 | 52.12064 | -1.33215 | 18446 ft | 393 kts | 140° |
| 2026-04-20 20:21 | 52.10000 | -1.30349 | 18033 ft | 386 kts | 140° |
| 2026-04-20 20:21 | 52.07973 | -1.27536 | 17640 ft | 379 kts | 140° |
| 2026-04-20 20:22 | 52.05985 | -1.24782 | 17254 ft | 373 kts | 140° |
| 2026-04-20 20:22 | 52.04018 | -1.22060 | 16876 ft | 370 kts | 140° |
| 2026-04-20 20:22 | 52.02065 | -1.19351 | 16483 ft | 370 kts | 140° |
| 2026-04-20 20:22 | 52.00110 | -1.16644 | 16108 ft | 368 kts | 140° |
| 2026-04-20 20:23 | 51.98167 | -1.13964 | 15730 ft | 365 kts | 140° |
| 2026-04-20 20:23 | 51.96240 | -1.11307 | 15363 ft | 362 kts | 140° |
| 2026-04-20 20:23 | 51.94326 | -1.08669 | 14893 ft | 359 kts | 140° |
| 2026-04-20 20:23 | 51.92482 | -1.06128 | 14709 ft | 336 kts | 139° |
| 2026-04-20 20:24 | 51.90755 | -1.03749 | 14515 ft | 316 kts | 139° |
| 2026-04-20 20:24 | 51.89130 | -1.01517 | 14371 ft | 297 kts | 140° |
| 2026-04-20 20:24 | 51.87595 | -0.99410 | 14118 ft | 285 kts | 139° |
| 2026-04-20 20:24 | 51.86104 | -0.97332 | 13629 ft | 280 kts | 134° |
| 2026-04-20 20:25 | 51.84893 | -0.94872 | 13128 ft | 274 kts | 119° |
| 2026-04-20 20:25 | 51.83867 | -0.92348 | 12590 ft | 272 kts | 134° |
| 2026-04-20 20:25 | 51.82307 | -0.90689 | 12093 ft | 269 kts | 158° |
| 2026-04-20 20:25 | 51.80520 | -0.89841 | 11536 ft | 269 kts | 169° |
| 2026-04-20 20:26 | 51.78711 | -0.89301 | 11301 ft | 256 kts | 171° |
| 2026-04-20 20:26 | 51.77009 | -0.88832 | 11166 ft | 241 kts | 171° |
| 2026-04-20 20:26 | 51.75413 | -0.88403 | 11038 ft | 225 kts | 171° |
| 2026-04-20 20:26 | 51.73890 | -0.87997 | 10695 ft | 220 kts | 171° |
| 2026-04-20 20:27 | 51.72371 | -0.87886 | 10258 ft | 219 kts | 192° |
| 2026-04-20 20:27 | 51.70944 | -0.88653 | 9803 ft | 216 kts | 213° |
| 2026-04-20 20:27 | 51.69721 | -0.90027 | 9388 ft | 213 kts | 219° |
| 2026-04-20 20:27 | 51.68605 | -0.91575 | 8954 ft | 211 kts | 228° |
| 2026-04-20 20:28 | 51.67699 | -0.93398 | 8527 ft | 207 kts | 250° |
| 2026-04-20 20:28 | 51.67337 | -0.95597 | 8153 ft | 202 kts | 264° |
| 2026-04-20 20:28 | 51.67134 | -0.97831 | 7726 ft | 201 kts | 265° |
| 2026-04-20 20:28 | 51.66959 | -1.00072 | 7304 ft | 202 kts | 266° |
| 2026-04-20 20:29 | 51.66781 | -1.02315 | 6885 ft | 201 kts | 265° |
| 2026-04-20 20:29 | 51.66404 | -1.04465 | 6496 ft | 200 kts | 237° |
| 2026-04-20 20:29 | 51.65377 | -1.05973 | 6119 ft | 204 kts | 209° |
| 2026-04-20 20:29 | 51.64021 | -1.06457 | 5800 ft | 200 kts | 175° |
| 2026-04-20 20:30 | 51.62636 | -1.06223 | 5476 ft | 200 kts | 169° |
| 2026-04-20 20:30 | 51.61267 | -1.05885 | 5171 ft | 199 kts | 168° |
| 2026-04-20 20:30 | 51.59904 | -1.05543 | 4884 ft | 197 kts | 168° |
| 2026-04-20 20:30 | 51.58551 | -1.05208 | 4598 ft | 196 kts | 168° |
| 2026-04-20 20:31 | 51.57253 | -1.04646 | 4302 ft | 192 kts | 154° |
| 2026-04-20 20:31 | 51.56038 | -1.03799 | 4056 ft | 189 kts | 151° |
| 2026-04-20 20:31 | 51.54842 | -1.02923 | 4002 ft | 189 kts | 151° |
| 2026-04-20 20:31 | 51.53658 | -1.02012 | 4010 ft | 188 kts | 147° |
| 2026-04-20 20:32 | 51.52515 | -1.00988 | 4013 ft | 188 kts | 146° |
| 2026-04-20 20:32 | 51.51376 | -0.99950 | 4006 ft | 189 kts | 146° |
| 2026-04-20 20:32 | 51.50232 | -0.98907 | 4007 ft | 189 kts | 146° |
| 2026-04-20 20:32 | 51.49100 | -0.97845 | 3999 ft | 187 kts | 141° |
| 2026-04-20 20:33 | 51.48182 | -0.96425 | 4007 ft | 182 kts | 121° |
| 2026-04-20 20:33 | 51.47628 | -0.94631 | 4009 ft | 179 kts | 102° |
| 2026-04-20 20:33 | 51.47484 | -0.92674 | 3995 ft | 176 kts | 86° |
| 2026-04-20 20:33 | 51.47499 | -0.90705 | 3990 ft | 176 kts | 86° |
| 2026-04-20 20:34 | 51.47515 | -0.88714 | 3987 ft | 184 kts | 86° |
| 2026-04-20 20:34 | 51.47532 | -0.86644 | 3993 ft | 187 kts | 86° |
| 2026-04-20 20:34 | 51.47547 | -0.84559 | 3992 ft | 186 kts | 86° |
| 2026-04-20 20:34 | 51.47560 | -0.82546 | 3992 ft | 178 kts | 86° |
| 2026-04-20 20:35 | 51.47573 | -0.80567 | 3980 ft | 177 kts | 86° |
| 2026-04-20 20:35 | 51.47587 | -0.78601 | 3833 ft | 176 kts | 86° |
| 2026-04-20 20:35 | 51.47600 | -0.76643 | 3624 ft | 175 kts | 86° |
| 2026-04-20 20:35 | 51.47612 | -0.74702 | 3390 ft | 174 kts | 86° |
| 2026-04-20 20:36 | 51.47624 | -0.72770 | 3157 ft | 172 kts | 86° |
| 2026-04-20 20:36 | 51.47635 | -0.70873 | 2919 ft | 168 kts | 87° |
| 2026-04-20 20:36 | 51.47646 | -0.69018 | 2691 ft | 163 kts | 86° |
| 2026-04-20 20:36 | 51.47656 | -0.67235 | 2481 ft | 158 kts | 86° |
| 2026-04-20 20:37 | 51.47666 | -0.65496 | 2260 ft | 154 kts | 86° |
| 2026-04-20 20:37 | 51.47675 | -0.63812 | 2057 ft | 149 kts | 86° |
| 2026-04-20 20:37 | 51.47683 | -0.62212 | 1866 ft | 138 kts | 86° |
| 2026-04-20 20:37 | 51.47691 | -0.60673 | 1670 ft | 134 kts | 86° |
| 2026-04-20 20:38 | 51.47698 | -0.59191 | 1486 ft | 132 kts | 86° |
| 2026-04-20 20:38 | 51.47706 | -0.57724 | 1302 ft | 131 kts | 85° |
| 2026-04-20 20:38 | 51.47713 | -0.56267 | 1120 ft | 131 kts | 85° |
| 2026-04-20 20:38 | 51.47720 | -0.54804 | 926 ft | 131 kts | 86° |
| 2026-04-20 20:39 | 51.47727 | -0.53333 | 732 ft | 132 kts | 87° |
| 2026-04-20 20:39 | 51.47732 | -0.51848 | 556 ft | 134 kts | 86° |
| 2026-04-20 20:39 | 51.47738 | -0.50368 | 343 ft | 132 kts | 86° |
| 2026-04-20 20:39 | 51.47748 | -0.48900 | 191 ft | 133 kts | 89° |
| 2026-04-20 20:40 | 51.47754 | -0.47427 | 89 ft | 126 kts | 88° |
| 2026-04-20 20:40 | 51.47759 | -0.46240 | 90 ft | 83 kts | 89° |
| 2026-04-20 20:40 | 51.47761 | -0.45604 | 85 ft | 25 kts | 90° |
| 2026-04-20 20:40 | 51.47712 | -0.45470 | 85 ft | 14 kts | 159° |
| 2026-04-20 20:41 | 51.47621 | -0.45470 | 86 ft | 10 kts | 188° |
| 2026-04-20 20:41 | 51.47595 | -0.45554 | 88 ft | 10 kts | 268° |
| 2026-04-20 20:41 | 51.47595 | -0.45676 | 88 ft | 12 kts | 269° |
| 2026-04-20 20:41 | 51.47595 | -0.45825 | 87 ft | 15 kts | 271° |
| 2026-04-20 20:42 | 51.47596 | -0.46001 | 90 ft | 17 kts | 269° |
| 2026-04-20 20:42 | 51.47594 | -0.46206 | 86 ft | 20 kts | 270° |
| 2026-04-20 20:42 | 51.47593 | -0.46440 | 88 ft | 22 kts | 269° |
| 2026-04-20 20:42 | 51.47592 | -0.46703 | 86 ft | 22 kts | 269° |
| 2026-04-20 20:43 | 51.47582 | -0.46928 | 90 ft | 19 kts | 268° |
| 2026-04-20 20:43 | 51.47583 | -0.47159 | 87 ft | 22 kts | 270° |
| 2026-04-20 20:43 | 51.47581 | -0.47421 | 88 ft | 25 kts | 269° |
| 2026-04-20 20:43 | 51.47581 | -0.47688 | 87 ft | 16 kts | 269° |
| 2026-04-20 20:44 | 51.47580 | -0.47877 | 88 ft | 18 kts | 270° |
| 2026-04-20 20:44 | 51.47579 | -0.48096 | 86 ft | 21 kts | 270° |
| 2026-04-20 20:44 | 51.47578 | -0.48345 | 88 ft | 24 kts | 269° |
| 2026-04-20 20:44 | 51.47576 | -0.48618 | 89 ft | 24 kts | 268° |
| 2026-04-20 20:45 | 51.47577 | -0.48814 | 86 ft | 13 kts | 270° |
| 2026-04-20 20:45 | 51.47573 | -0.48934 | 86 ft | 7 kts | 249° |
| 2026-04-20 20:45 | 51.47525 | -0.48960 | 88 ft | 9 kts | 169° |
| 2026-04-20 20:45 | 51.47454 | -0.48954 | 87 ft | 11 kts | 179° |
| 2026-04-20 20:46 | 51.47424 | -0.48953 | 86 ft | 1 kts | 180° |
| 2026-04-20 20:46 | 51.47417 | -0.48953 | 86 ft | 0 kts | 180° |